sensor_id;sensor_type;location;lat;lon;timestamp;temperature;humidity
15450;DHT22;7826;49.784;9.934;2022-08-02T00:01:39;21.00;79.80
15450;DHT22;7826;49.784;9.934;2022-08-02T00:04:06;21.00;79.90
15450;DHT22;7826;49.784;9.934;2022-08-02T00:06:32;20.90;80.10
15450;DHT22;7826;49.784;9.934;2022-08-02T00:08:59;20.90;80.20
15450;DHT22;7826;49.784;9.934;2022-08-02T00:11:25;21.00;80.20
15450;DHT22;7826;49.784;9.934;2022-08-02T00:13:51;21.00;80.30
15450;DHT22;7826;49.784;9.934;2022-08-02T00:16:17;21.00;80.40
15450;DHT22;7826;49.784;9.934;2022-08-02T00:18:44;21.00;80.50
15450;DHT22;7826;49.784;9.934;2022-08-02T00:21:10;20.90;81.10
15450;DHT22;7826;49.784;9.934;2022-08-02T00:23:37;20.90;80.60
15450;DHT22;7826;49.784;9.934;2022-08-02T00:26:03;21.00;80.60
15450;DHT22;7826;49.784;9.934;2022-08-02T00:28:29;20.90;80.70
15450;DHT22;7826;49.784;9.934;2022-08-02T00:30:59;20.90;81.60
15450;DHT22;7826;49.784;9.934;2022-08-02T00:33:26;20.90;81.20
15450;DHT22;7826;49.784;9.934;2022-08-02T00:35:53;20.80;81.20
15450;DHT22;7826;49.784;9.934;2022-08-02T00:38:20;20.80;81.50
15450;DHT22;7826;49.784;9.934;2022-08-02T00:40:48;20.80;81.70
15450;DHT22;7826;49.784;9.934;2022-08-02T00:43:14;20.70;81.90
15450;DHT22;7826;49.784;9.934;2022-08-02T00:45:41;20.70;82.20
15450;DHT22;7826;49.784;9.934;2022-08-02T00:48:09;20.70;82.40
15450;DHT22;7826;49.784;9.934;2022-08-02T00:50:36;20.60;82.60
15450;DHT22;7826;49.784;9.934;2022-08-02T00:53:03;20.60;82.80
15450;DHT22;7826;49.784;9.934;2022-08-02T00:55:30;20.60;82.90
15450;DHT22;7826;49.784;9.934;2022-08-02T00:57:57;20.60;83.20
15450;DHT22;7826;49.784;9.934;2022-08-02T01:00:24;20.60;83.30
15450;DHT22;7826;49.784;9.934;2022-08-02T01:02:50;20.50;83.60
15450;DHT22;7826;49.784;9.934;2022-08-02T01:05:17;20.50;83.80
15450;DHT22;7826;49.784;9.934;2022-08-02T01:07:43;20.50;84.10
15450;DHT22;7826;49.784;9.934;2022-08-02T01:10:09;20.40;84.40
15450;DHT22;7826;49.784;9.934;2022-08-02T01:12:36;20.40;84.60
15450;DHT22;7826;49.784;9.934;2022-08-02T01:15:08;20.30;84.90
15450;DHT22;7826;49.784;9.934;2022-08-02T01:17:43;20.30;85.10
15450;DHT22;7826;49.784;9.934;2022-08-02T01:20:14;20.30;85.50
15450;DHT22;7826;49.784;9.934;2022-08-02T01:22:57;20.20;85.60
15450;DHT22;7826;49.784;9.934;2022-08-02T01:31:27;20.10;86.30
15450;DHT22;7826;49.784;9.934;2022-08-02T01:36:49;20.10;87.00
15450;DHT22;7826;49.784;9.934;2022-08-02T01:39:21;20.00;87.20
15450;DHT22;7826;49.784;9.934;2022-08-02T01:41:49;20.00;87.50
15450;DHT22;7826;49.784;9.934;2022-08-02T01:44:18;19.90;88.00
15450;DHT22;7826;49.784;9.934;2022-08-02T01:46:47;19.90;88.50
15450;DHT22;7826;49.784;9.934;2022-08-02T01:49:17;19.80;89.80
15450;DHT22;7826;49.784;9.934;2022-08-02T01:51:47;19.80;89.40
15450;DHT22;7826;49.784;9.934;2022-08-02T01:54:33;19.80;89.90
15450;DHT22;7826;49.784;9.934;2022-08-02T01:57:04;19.80;90.00
15450;DHT22;7826;49.784;9.934;2022-08-02T01:59:31;19.70;90.20
15450;DHT22;7826;49.784;9.934;2022-08-02T02:01:59;19.70;90.40
15450;DHT22;7826;49.784;9.934;2022-08-02T02:04:34;19.70;90.50
15450;DHT22;7826;49.784;9.934;2022-08-02T02:07:03;19.70;90.60
15450;DHT22;7826;49.784;9.934;2022-08-02T02:09:36;19.70;90.70
15450;DHT22;7826;49.784;9.934;2022-08-02T02:12:03;19.70;90.80
15450;DHT22;7826;49.784;9.934;2022-08-02T02:14:32;19.70;90.90
15450;DHT22;7826;49.784;9.934;2022-08-02T02:17:00;19.70;91.00
15450;DHT22;7826;49.784;9.934;2022-08-02T02:19:28;19.60;91.10
15450;DHT22;7826;49.784;9.934;2022-08-02T02:21:56;19.60;91.20
15450;DHT22;7826;49.784;9.934;2022-08-02T02:24:22;19.60;91.40
15450;DHT22;7826;49.784;9.934;2022-08-02T02:26:50;19.60;91.40
15450;DHT22;7826;49.784;9.934;2022-08-02T02:29:18;19.50;91.70
15450;DHT22;7826;49.784;9.934;2022-08-02T02:31:46;19.50;91.90
15450;DHT22;7826;49.784;9.934;2022-08-02T02:34:17;19.50;92.00
15450;DHT22;7826;49.784;9.934;2022-08-02T02:36:50;19.50;92.10
15450;DHT22;7826;49.784;9.934;2022-08-02T02:39:20;19.50;92.20
15450;DHT22;7826;49.784;9.934;2022-08-02T02:41:48;19.50;92.30
15450;DHT22;7826;49.784;9.934;2022-08-02T02:44:18;19.60;92.40
15450;DHT22;7826;49.784;9.934;2022-08-02T02:46:47;19.60;92.30
15450;DHT22;7826;49.784;9.934;2022-08-02T02:49:15;19.60;92.40
15450;DHT22;7826;49.784;9.934;2022-08-02T02:51:43;19.60;92.50
15450;DHT22;7826;49.784;9.934;2022-08-02T02:54:11;19.50;92.60
15450;DHT22;7826;49.784;9.934;2022-08-02T02:56:40;19.60;92.70
15450;DHT22;7826;49.784;9.934;2022-08-02T02:59:08;19.60;92.80
15450;DHT22;7826;49.784;9.934;2022-08-02T03:01:35;19.60;92.80
15450;DHT22;7826;49.784;9.934;2022-08-02T03:04:04;19.50;92.70
15450;DHT22;7826;49.784;9.934;2022-08-02T03:06:32;19.60;92.80
15450;DHT22;7826;49.784;9.934;2022-08-02T03:08:58;19.60;92.90
15450;DHT22;7826;49.784;9.934;2022-08-02T03:11:25;19.60;92.80
15450;DHT22;7826;49.784;9.934;2022-08-02T03:13:58;19.60;92.90
15450;DHT22;7826;49.784;9.934;2022-08-02T03:16:25;19.70;92.80
15450;DHT22;7826;49.784;9.934;2022-08-02T03:18:55;19.70;92.70
15450;DHT22;7826;49.784;9.934;2022-08-02T03:21:22;19.60;92.60
15450;DHT22;7826;49.784;9.934;2022-08-02T03:23:49;19.60;92.60
15450;DHT22;7826;49.784;9.934;2022-08-02T03:26:15;19.60;92.80
15450;DHT22;7826;49.784;9.934;2022-08-02T03:28:42;19.60;92.50
15450;DHT22;7826;49.784;9.934;2022-08-02T03:31:11;19.50;92.60
15450;DHT22;7826;49.784;9.934;2022-08-02T03:33:38;19.60;92.50
15450;DHT22;7826;49.784;9.934;2022-08-02T03:36:09;19.60;92.50
15450;DHT22;7826;49.784;9.934;2022-08-02T03:38:36;19.50;92.60
15450;DHT22;7826;49.784;9.934;2022-08-02T03:41:04;19.50;92.60
15450;DHT22;7826;49.784;9.934;2022-08-02T03:43:31;19.50;92.70
15450;DHT22;7826;49.784;9.934;2022-08-02T03:45:59;19.50;92.90
15450;DHT22;7826;49.784;9.934;2022-08-02T03:48:26;19.40;93.00
15450;DHT22;7826;49.784;9.934;2022-08-02T03:50:53;19.40;93.20
15450;DHT22;7826;49.784;9.934;2022-08-02T03:53:20;19.40;93.30
15450;DHT22;7826;49.784;9.934;2022-08-02T03:56:06;19.40;93.40
15450;DHT22;7826;49.784;9.934;2022-08-02T03:58:32;19.30;93.60
15450;DHT22;7826;49.784;9.934;2022-08-02T04:00:59;19.30;93.70
15450;DHT22;7826;49.784;9.934;2022-08-02T04:03:29;19.30;93.90
15450;DHT22;7826;49.784;9.934;2022-08-02T04:05:56;19.30;93.90
15450;DHT22;7826;49.784;9.934;2022-08-02T04:08:24;19.30;94.10
15450;DHT22;7826;49.784;9.934;2022-08-02T04:11:02;19.30;94.10
15450;DHT22;7826;49.784;9.934;2022-08-02T04:13:47;19.30;94.20
15450;DHT22;7826;49.784;9.934;2022-08-02T04:19:10;19.30;94.50
15450;DHT22;7826;49.784;9.934;2022-08-02T04:21:40;19.30;94.60
15450;DHT22;7826;49.784;9.934;2022-08-02T04:24:08;19.20;94.90
15450;DHT22;7826;49.784;9.934;2022-08-02T04:26:40;19.20;95.10
15450;DHT22;7826;49.784;9.934;2022-08-02T04:29:10;19.20;95.30
15450;DHT22;7826;49.784;9.934;2022-08-02T04:31:38;19.20;95.40
15450;DHT22;7826;49.784;9.934;2022-08-02T04:34:05;19.20;95.50
15450;DHT22;7826;49.784;9.934;2022-08-02T04:36:32;19.20;95.60
15450;DHT22;7826;49.784;9.934;2022-08-02T04:38:58;19.20;95.70
15450;DHT22;7826;49.784;9.934;2022-08-02T04:41:42;19.20;95.70
15450;DHT22;7826;49.784;9.934;2022-08-02T04:44:08;19.20;95.90
15450;DHT22;7826;49.784;9.934;2022-08-02T04:46:35;19.20;96.00
15450;DHT22;7826;49.784;9.934;2022-08-02T04:49:02;19.30;95.90
15450;DHT22;7826;49.784;9.934;2022-08-02T04:51:28;19.30;95.80
15450;DHT22;7826;49.784;9.934;2022-08-02T04:53:55;19.30;95.80
15450;DHT22;7826;49.784;9.934;2022-08-02T04:56:21;19.30;95.80
15450;DHT22;7826;49.784;9.934;2022-08-02T04:58:48;19.30;95.80
15450;DHT22;7826;49.784;9.934;2022-08-02T05:01:14;19.40;95.90
15450;DHT22;7826;49.784;9.934;2022-08-02T05:03:40;19.60;96.10
15450;DHT22;7826;49.784;9.934;2022-08-02T05:06:07;19.90;95.80
15450;DHT22;7826;49.784;9.934;2022-08-02T05:08:33;20.10;95.00
15450;DHT22;7826;49.784;9.934;2022-08-02T05:10:59;20.30;94.30
15450;DHT22;7826;49.784;9.934;2022-08-02T05:13:26;20.50;94.00
15450;DHT22;7826;49.784;9.934;2022-08-02T05:15:52;20.70;93.20
15450;DHT22;7826;49.784;9.934;2022-08-02T05:18:18;20.80;93.00
15450;DHT22;7826;49.784;9.934;2022-08-02T05:20:45;21.00;93.00
15450;DHT22;7826;49.784;9.934;2022-08-02T05:23:11;21.40;92.30
15450;DHT22;7826;49.784;9.934;2022-08-02T05:25:37;21.70;91.80
15450;DHT22;7826;49.784;9.934;2022-08-02T05:28:04;22.00;90.80
15450;DHT22;7826;49.784;9.934;2022-08-02T05:30:30;22.30;89.80
15450;DHT22;7826;49.784;9.934;2022-08-02T05:32:56;22.50;89.50
15450;DHT22;7826;49.784;9.934;2022-08-02T05:35:23;22.70;87.30
15450;DHT22;7826;49.784;9.934;2022-08-02T05:37:51;22.70;86.20
15450;DHT22;7826;49.784;9.934;2022-08-02T05:40:18;22.90;85.80
15450;DHT22;7826;49.784;9.934;2022-08-02T05:42:44;23.10;85.10
15450;DHT22;7826;49.784;9.934;2022-08-02T05:45:11;23.30;82.70
15450;DHT22;7826;49.784;9.934;2022-08-02T05:47:38;23.50;82.40
15450;DHT22;7826;49.784;9.934;2022-08-02T05:50:08;23.30;80.40
15450;DHT22;7826;49.784;9.934;2022-08-02T05:52:50;23.10;81.60
15450;DHT22;7826;49.784;9.934;2022-08-02T05:55:23;23.10;82.30
15450;DHT22;7826;49.784;9.934;2022-08-02T05:57:54;23.30;82.50
15450;DHT22;7826;49.784;9.934;2022-08-02T06:00:23;23.50;82.10
15450;DHT22;7826;49.784;9.934;2022-08-02T06:05:57;23.80;79.00
15450;DHT22;7826;49.784;9.934;2022-08-02T06:08:32;23.90;78.10
15450;DHT22;7826;49.784;9.934;2022-08-02T06:11:05;24.10;77.50
15450;DHT22;7826;49.784;9.934;2022-08-02T06:13:32;24.20;76.80
15450;DHT22;7826;49.784;9.934;2022-08-02T06:15:59;24.50;76.70
15450;DHT22;7826;49.784;9.934;2022-08-02T06:18:26;24.60;76.00
15450;DHT22;7826;49.784;9.934;2022-08-02T06:20:58;24.90;75.30
15450;DHT22;7826;49.784;9.934;2022-08-02T06:23:26;25.10;73.60
15450;DHT22;7826;49.784;9.934;2022-08-02T06:25:56;25.30;72.40
15450;DHT22;7826;49.784;9.934;2022-08-02T06:28:23;25.50;73.20
15450;DHT22;7826;49.784;9.934;2022-08-02T06:30:50;25.70;71.10
15450;DHT22;7826;49.784;9.934;2022-08-02T06:33:16;25.90;71.20
15450;DHT22;7826;49.784;9.934;2022-08-02T06:35:55;26.00;69.90
15450;DHT22;7826;49.784;9.934;2022-08-02T06:38:25;25.70;67.30
15450;DHT22;7826;49.784;9.934;2022-08-02T06:41:05;25.50;70.10
15450;DHT22;7826;49.784;9.934;2022-08-02T06:46:20;25.50;70.40
15450;DHT22;7826;49.784;9.934;2022-08-02T06:48:47;25.40;68.90
15450;DHT22;7826;49.784;9.934;2022-08-02T06:51:13;25.20;69.20
15450;DHT22;7826;49.784;9.934;2022-08-02T06:53:40;25.30;70.00
15450;DHT22;7826;49.784;9.934;2022-08-02T06:56:07;25.20;69.70
15450;DHT22;7826;49.784;9.934;2022-08-02T06:58:33;25.40;70.90
15450;DHT22;7826;49.784;9.934;2022-08-02T07:00:59;25.20;68.80
15450;DHT22;7826;49.784;9.934;2022-08-02T07:03:26;25.30;71.50
15450;DHT22;7826;49.784;9.934;2022-08-02T07:05:53;25.70;69.50
15450;DHT22;7826;49.784;9.934;2022-08-02T07:08:20;25.80;68.20
15450;DHT22;7826;49.784;9.934;2022-08-02T07:10:46;25.90;67.30
15450;DHT22;7826;49.784;9.934;2022-08-02T07:13:12;26.00;67.40
15450;DHT22;7826;49.784;9.934;2022-08-02T07:15:39;26.20;65.90
15450;DHT22;7826;49.784;9.934;2022-08-02T07:18:05;26.40;65.90
15450;DHT22;7826;49.784;9.934;2022-08-02T07:20:32;26.60;64.90
15450;DHT22;7826;49.784;9.934;2022-08-02T07:22:59;26.90;63.90
15450;DHT22;7826;49.784;9.934;2022-08-02T07:25:25;26.90;63.70
15450;DHT22;7826;49.784;9.934;2022-08-02T07:27:51;27.30;63.90
15450;DHT22;7826;49.784;9.934;2022-08-02T07:30:18;27.30;62.90
15450;DHT22;7826;49.784;9.934;2022-08-02T07:32:45;27.80;63.10
15450;DHT22;7826;49.784;9.934;2022-08-02T07:35:11;28.50;63.20
15450;DHT22;7826;49.784;9.934;2022-08-02T07:37:37;28.80;60.00
15450;DHT22;7826;49.784;9.934;2022-08-02T07:40:05;29.30;58.40
15450;DHT22;7826;49.784;9.934;2022-08-02T07:42:32;29.70;57.80
15450;DHT22;7826;49.784;9.934;2022-08-02T07:44:58;30.10;56.90
15450;DHT22;7826;49.784;9.934;2022-08-02T07:47:24;30.70;55.70
15450;DHT22;7826;49.784;9.934;2022-08-02T07:49:51;31.10;54.80
15450;DHT22;7826;49.784;9.934;2022-08-02T07:52:17;31.80;54.70
15450;DHT22;7826;49.784;9.934;2022-08-02T07:54:44;31.90;53.80
15450;DHT22;7826;49.784;9.934;2022-08-02T07:57:10;32.20;52.20
15450;DHT22;7826;49.784;9.934;2022-08-02T07:59:37;32.30;50.10
15450;DHT22;7826;49.784;9.934;2022-08-02T08:02:03;32.30;49.40
15450;DHT22;7826;49.784;9.934;2022-08-02T08:04:29;32.20;49.70
15450;DHT22;7826;49.784;9.934;2022-08-02T08:06:56;32.10;50.70
15450;DHT22;7826;49.784;9.934;2022-08-02T08:09:23;32.90;50.40
15450;DHT22;7826;49.784;9.934;2022-08-02T08:11:50;33.50;47.30
15450;DHT22;7826;49.784;9.934;2022-08-02T08:14:16;33.80;47.70
15450;DHT22;7826;49.784;9.934;2022-08-02T08:16:43;34.00;46.70
15450;DHT22;7826;49.784;9.934;2022-08-02T08:19:09;34.70;45.70
15450;DHT22;7826;49.784;9.934;2022-08-02T08:21:36;34.80;45.10
15450;DHT22;7826;49.784;9.934;2022-08-02T08:24:02;34.80;43.90
15450;DHT22;7826;49.784;9.934;2022-08-02T08:26:29;35.10;44.70
15450;DHT22;7826;49.784;9.934;2022-08-02T08:28:56;35.70;44.00
15450;DHT22;7826;49.784;9.934;2022-08-02T08:31:22;36.10;43.60
15450;DHT22;7826;49.784;9.934;2022-08-02T08:33:48;36.60;42.30
15450;DHT22;7826;49.784;9.934;2022-08-02T08:36:15;37.00;41.50
15450;DHT22;7826;49.784;9.934;2022-08-02T08:38:41;37.40;40.00
15450;DHT22;7826;49.784;9.934;2022-08-02T08:41:08;37.30;40.10
15450;DHT22;7826;49.784;9.934;2022-08-02T08:43:36;36.90;39.00
15450;DHT22;7826;49.784;9.934;2022-08-02T08:46:02;36.80;40.10
15450;DHT22;7826;49.784;9.934;2022-08-02T08:48:31;36.70;38.30
15450;DHT22;7826;49.784;9.934;2022-08-02T08:51:07;37.30;38.40
15450;DHT22;7826;49.784;9.934;2022-08-02T08:53:39;37.50;37.90
15450;DHT22;7826;49.784;9.934;2022-08-02T08:56:06;37.40;37.70
15450;DHT22;7826;49.784;9.934;2022-08-02T08:58:33;37.70;36.60
15450;DHT22;7826;49.784;9.934;2022-08-02T09:00:59;37.80;38.20
15450;DHT22;7826;49.784;9.934;2022-08-02T09:03:25;37.90;37.20
15450;DHT22;7826;49.784;9.934;2022-08-02T09:05:52;37.50;36.40
15450;DHT22;7826;49.784;9.934;2022-08-02T09:08:18;37.40;36.80
15450;DHT22;7826;49.784;9.934;2022-08-02T09:10:46;37.70;37.00
15450;DHT22;7826;49.784;9.934;2022-08-02T09:13:22;37.70;35.70
15450;DHT22;7826;49.784;9.934;2022-08-02T09:15:56;37.80;36.40
15450;DHT22;7826;49.784;9.934;2022-08-02T09:18:36;37.70;36.40
15450;DHT22;7826;49.784;9.934;2022-08-02T09:21:08;37.60;36.30
15450;DHT22;7826;49.784;9.934;2022-08-02T09:23:37;37.30;36.30
15450;DHT22;7826;49.784;9.934;2022-08-02T09:26:09;36.90;35.50
15450;DHT22;7826;49.784;9.934;2022-08-02T09:28:37;36.70;37.40
15450;DHT22;7826;49.784;9.934;2022-08-02T09:31:11;36.80;38.10
15450;DHT22;7826;49.784;9.934;2022-08-02T09:33:40;36.80;36.30
15450;DHT22;7826;49.784;9.934;2022-08-02T09:36:10;36.30;36.20
15450;DHT22;7826;49.784;9.934;2022-08-02T09:38:39;36.10;36.30
15450;DHT22;7826;49.784;9.934;2022-08-02T09:41:19;36.40;37.60
15450;DHT22;7826;49.784;9.934;2022-08-02T09:43:46;36.20;36.40
15450;DHT22;7826;49.784;9.934;2022-08-02T09:48:50;35.10;36.60
15450;DHT22;7826;49.784;9.934;2022-08-02T09:53:54;34.80;37.50
15450;DHT22;7826;49.784;9.934;2022-08-02T09:56:22;34.60;37.40
15450;DHT22;7826;49.784;9.934;2022-08-02T09:58:49;34.20;37.70
15450;DHT22;7826;49.784;9.934;2022-08-02T10:01:18;33.80;38.30
15450;DHT22;7826;49.784;9.934;2022-08-02T10:03:54;33.40;38.80
15450;DHT22;7826;49.784;9.934;2022-08-02T10:06:21;33.20;39.50
15450;DHT22;7826;49.784;9.934;2022-08-02T10:08:48;32.70;39.30
15450;DHT22;7826;49.784;9.934;2022-08-02T10:11:16;32.70;41.80
15450;DHT22;7826;49.784;9.934;2022-08-02T10:13:42;32.50;40.60
15450;DHT22;7826;49.784;9.934;2022-08-02T10:16:09;32.20;41.80
15450;DHT22;7826;49.784;9.934;2022-08-02T10:18:36;32.50;41.30
15450;DHT22;7826;49.784;9.934;2022-08-02T10:21:06;32.40;40.40
15450;DHT22;7826;49.784;9.934;2022-08-02T10:23:38;32.10;41.50
15450;DHT22;7826;49.784;9.934;2022-08-02T10:26:06;31.90;41.80
15450;DHT22;7826;49.784;9.934;2022-08-02T10:28:33;31.40;42.00
15450;DHT22;7826;49.784;9.934;2022-08-02T10:31:01;30.60;43.30
15450;DHT22;7826;49.784;9.934;2022-08-02T10:33:34;30.20;44.80
15450;DHT22;7826;49.784;9.934;2022-08-02T10:36:01;29.90;45.80
15450;DHT22;7826;49.784;9.934;2022-08-02T10:38:29;29.80;45.30
15450;DHT22;7826;49.784;9.934;2022-08-02T10:40:56;29.50;45.20
15450;DHT22;7826;49.784;9.934;2022-08-02T10:46:30;29.60;46.00
15450;DHT22;7826;49.784;9.934;2022-08-02T10:52:09;29.70;44.60
15450;DHT22;7826;49.784;9.934;2022-08-02T10:54:47;29.60;43.10
15450;DHT22;7826;49.784;9.934;2022-08-02T10:57:18;29.20;43.60
15450;DHT22;7826;49.784;9.934;2022-08-02T10:59:45;28.80;44.10
15450;DHT22;7826;49.784;9.934;2022-08-02T11:02:12;28.70;44.60
15450;DHT22;7826;49.784;9.934;2022-08-02T11:07:15;28.60;45.90
15450;DHT22;7826;49.784;9.934;2022-08-02T11:09:45;28.50;46.10
15450;DHT22;7826;49.784;9.934;2022-08-02T11:12:14;28.60;45.90
15450;DHT22;7826;49.784;9.934;2022-08-02T11:14:42;28.70;45.90
15450;DHT22;7826;49.784;9.934;2022-08-02T11:17:10;28.70;45.40
15450;DHT22;7826;49.784;9.934;2022-08-02T11:22:39;29.00;45.90
15450;DHT22;7826;49.784;9.934;2022-08-02T11:27:54;29.10;45.00
15450;DHT22;7826;49.784;9.934;2022-08-02T11:30:21;29.00;44.50
15450;DHT22;7826;49.784;9.934;2022-08-02T11:32:48;28.90;44.70
15450;DHT22;7826;49.784;9.934;2022-08-02T11:35:15;28.90;44.80
15450;DHT22;7826;49.784;9.934;2022-08-02T11:37:43;29.10;44.60
15450;DHT22;7826;49.784;9.934;2022-08-02T11:40:16;29.20;44.20
15450;DHT22;7826;49.784;9.934;2022-08-02T11:42:45;29.20;44.20
15450;DHT22;7826;49.784;9.934;2022-08-02T11:45:14;29.30;43.90
15450;DHT22;7826;49.784;9.934;2022-08-02T11:47:49;29.50;43.80
15450;DHT22;7826;49.784;9.934;2022-08-02T11:50:18;29.80;43.60
15450;DHT22;7826;49.784;9.934;2022-08-02T11:52:51;29.80;42.90
15450;DHT22;7826;49.784;9.934;2022-08-02T11:55:30;29.80;42.80
15450;DHT22;7826;49.784;9.934;2022-08-02T11:57:59;29.80;42.70
15450;DHT22;7826;49.784;9.934;2022-08-02T12:00:26;29.90;42.80
15450;DHT22;7826;49.784;9.934;2022-08-02T12:02:52;29.90;43.20
15450;DHT22;7826;49.784;9.934;2022-08-02T12:05:21;29.90;43.00
15450;DHT22;7826;49.784;9.934;2022-08-02T12:07:52;29.80;43.10
15450;DHT22;7826;49.784;9.934;2022-08-02T12:10:21;29.80;43.00
15450;DHT22;7826;49.784;9.934;2022-08-02T12:15:15;29.80;42.70
15450;DHT22;7826;49.784;9.934;2022-08-02T12:17:53;30.00;42.80
15450;DHT22;7826;49.784;9.934;2022-08-02T12:20:38;30.10;42.70
15450;DHT22;7826;49.784;9.934;2022-08-02T12:23:06;30.30;42.40
15450;DHT22;7826;49.784;9.934;2022-08-02T12:25:32;30.50;41.90
15450;DHT22;7826;49.784;9.934;2022-08-02T12:30:56;30.30;42.00
15450;DHT22;7826;49.784;9.934;2022-08-02T12:33:26;30.30;41.50
15450;DHT22;7826;49.784;9.934;2022-08-02T12:35:52;30.30;41.10
15450;DHT22;7826;49.784;9.934;2022-08-02T12:38:19;30.10;41.00
15450;DHT22;7826;49.784;9.934;2022-08-02T12:40:46;29.70;41.40
15450;DHT22;7826;49.784;9.934;2022-08-02T12:43:31;29.40;42.00
15450;DHT22;7826;49.784;9.934;2022-08-02T12:45:58;29.30;42.90
15450;DHT22;7826;49.784;9.934;2022-08-02T12:48:36;29.50;43.00
15450;DHT22;7826;49.784;9.934;2022-08-02T12:51:29;29.60;43.00
15450;DHT22;7826;49.784;9.934;2022-08-02T12:54:17;29.80;42.40
15450;DHT22;7826;49.784;9.934;2022-08-02T12:56:47;29.90;42.30
15450;DHT22;7826;49.784;9.934;2022-08-02T12:59:15;30.00;42.10
15450;DHT22;7826;49.784;9.934;2022-08-02T13:01:41;30.20;42.30
15450;DHT22;7826;49.784;9.934;2022-08-02T13:04:12;30.20;41.80
15450;DHT22;7826;49.784;9.934;2022-08-02T13:06:39;30.50;40.90
15450;DHT22;7826;49.784;9.934;2022-08-02T13:09:15;30.50;40.80
15450;DHT22;7826;49.784;9.934;2022-08-02T13:11:43;30.40;40.60
15450;DHT22;7826;49.784;9.934;2022-08-02T13:14:10;30.50;40.80
15450;DHT22;7826;49.784;9.934;2022-08-02T13:16:39;30.60;40.70
15450;DHT22;7826;49.784;9.934;2022-08-02T13:19:05;30.70;40.40
15450;DHT22;7826;49.784;9.934;2022-08-02T13:21:32;30.80;40.30
15450;DHT22;7826;49.784;9.934;2022-08-02T13:23:58;30.90;39.70
15450;DHT22;7826;49.784;9.934;2022-08-02T13:26:25;30.90;39.80
15450;DHT22;7826;49.784;9.934;2022-08-02T13:28:51;30.80;38.90
15450;DHT22;7826;49.784;9.934;2022-08-02T13:31:18;30.90;39.20
15450;DHT22;7826;49.784;9.934;2022-08-02T13:33:44;30.80;39.10
15450;DHT22;7826;49.784;9.934;2022-08-02T13:36:11;30.70;39.40
15450;DHT22;7826;49.784;9.934;2022-08-02T13:38:38;30.60;39.50
15450;DHT22;7826;49.784;9.934;2022-08-02T13:41:04;30.50;39.10
15450;DHT22;7826;49.784;9.934;2022-08-02T13:43:35;30.50;39.80
15450;DHT22;7826;49.784;9.934;2022-08-02T13:46:02;30.60;39.90
15450;DHT22;7826;49.784;9.934;2022-08-02T13:48:29;30.60;39.50
15450;DHT22;7826;49.784;9.934;2022-08-02T13:50:55;30.60;39.60
15450;DHT22;7826;49.784;9.934;2022-08-02T13:53:22;30.70;39.50
15450;DHT22;7826;49.784;9.934;2022-08-02T13:55:49;30.60;39.30
15450;DHT22;7826;49.784;9.934;2022-08-02T13:58:15;30.50;39.30
15450;DHT22;7826;49.784;9.934;2022-08-02T14:00:42;30.50;39.50
15450;DHT22;7826;49.784;9.934;2022-08-02T14:03:09;30.40;39.50
15450;DHT22;7826;49.784;9.934;2022-08-02T14:05:41;30.40;39.90
15450;DHT22;7826;49.784;9.934;2022-08-02T14:08:08;30.50;39.50
15450;DHT22;7826;49.784;9.934;2022-08-02T14:10:34;30.50;39.40
15450;DHT22;7826;49.784;9.934;2022-08-02T14:13:03;30.60;39.30
15450;DHT22;7826;49.784;9.934;2022-08-02T14:15:30;30.70;41.00
15450;DHT22;7826;49.784;9.934;2022-08-02T14:17:57;30.70;39.50
15450;DHT22;7826;49.784;9.934;2022-08-02T14:20:23;30.50;41.50
15450;DHT22;7826;49.784;9.934;2022-08-02T14:22:50;30.30;41.10
15450;DHT22;7826;49.784;9.934;2022-08-02T14:25:17;30.30;40.60
15450;DHT22;7826;49.784;9.934;2022-08-02T14:27:43;30.40;39.90
15450;DHT22;7826;49.784;9.934;2022-08-02T14:30:10;30.20;40.00
15450;DHT22;7826;49.784;9.934;2022-08-02T14:32:37;30.40;40.40
15450;DHT22;7826;49.784;9.934;2022-08-02T14:35:04;30.30;40.20
15450;DHT22;7826;49.784;9.934;2022-08-02T14:37:31;30.40;39.60
15450;DHT22;7826;49.784;9.934;2022-08-02T14:39:58;30.40;39.90
15450;DHT22;7826;49.784;9.934;2022-08-02T14:42:24;30.40;39.50
15450;DHT22;7826;49.784;9.934;2022-08-02T14:44:51;30.50;39.40
15450;DHT22;7826;49.784;9.934;2022-08-02T14:47:20;30.50;38.90
15450;DHT22;7826;49.784;9.934;2022-08-02T14:49:47;30.70;38.60
15450;DHT22;7826;49.784;9.934;2022-08-02T14:52:15;30.60;38.90
15450;DHT22;7826;49.784;9.934;2022-08-02T14:54:42;30.70;38.50
15450;DHT22;7826;49.784;9.934;2022-08-02T14:57:09;30.70;38.60
15450;DHT22;7826;49.784;9.934;2022-08-02T14:59:36;30.80;38.00
15450;DHT22;7826;49.784;9.934;2022-08-02T15:02:03;30.80;38.30
15450;DHT22;7826;49.784;9.934;2022-08-02T15:04:29;30.70;38.40
15450;DHT22;7826;49.784;9.934;2022-08-02T15:06:59;30.70;37.90
15450;DHT22;7826;49.784;9.934;2022-08-02T15:09:26;30.60;37.60
15450;DHT22;7826;49.784;9.934;2022-08-02T15:11:53;30.50;38.30
15450;DHT22;7826;49.784;9.934;2022-08-02T15:14:20;30.50;38.70
15450;DHT22;7826;49.784;9.934;2022-08-02T15:16:47;30.50;38.80
15450;DHT22;7826;49.784;9.934;2022-08-02T15:19:14;30.40;38.60
15450;DHT22;7826;49.784;9.934;2022-08-02T15:21:40;30.40;39.20
15450;DHT22;7826;49.784;9.934;2022-08-02T15:24:07;30.50;39.40
15450;DHT22;7826;49.784;9.934;2022-08-02T15:26:34;30.50;39.30
15450;DHT22;7826;49.784;9.934;2022-08-02T15:29:00;30.50;38.50
15450;DHT22;7826;49.784;9.934;2022-08-02T15:31:27;30.50;38.70
15450;DHT22;7826;49.784;9.934;2022-08-02T15:33:53;30.50;38.60
15450;DHT22;7826;49.784;9.934;2022-08-02T15:36:20;30.50;38.40
15450;DHT22;7826;49.784;9.934;2022-08-02T15:38:47;30.50;38.70
15450;DHT22;7826;49.784;9.934;2022-08-02T15:41:14;30.70;38.70
15450;DHT22;7826;49.784;9.934;2022-08-02T15:43:40;30.60;38.60
15450;DHT22;7826;49.784;9.934;2022-08-02T15:46:07;30.60;38.30
15450;DHT22;7826;49.784;9.934;2022-08-02T15:48:34;30.50;37.50
15450;DHT22;7826;49.784;9.934;2022-08-02T15:51:01;30.50;37.70
15450;DHT22;7826;49.784;9.934;2022-08-02T15:53:27;30.60;37.90
15450;DHT22;7826;49.784;9.934;2022-08-02T15:55:54;30.50;37.00
15450;DHT22;7826;49.784;9.934;2022-08-02T15:58:20;30.50;37.70
15450;DHT22;7826;49.784;9.934;2022-08-02T16:00:47;30.50;37.80
15450;DHT22;7826;49.784;9.934;2022-08-02T16:03:14;30.50;38.10
15450;DHT22;7826;49.784;9.934;2022-08-02T16:05:40;30.50;38.30
15450;DHT22;7826;49.784;9.934;2022-08-02T16:08:07;30.50;38.40
15450;DHT22;7826;49.784;9.934;2022-08-02T16:10:34;30.50;38.30
15450;DHT22;7826;49.784;9.934;2022-08-02T16:13:00;30.40;38.50
15450;DHT22;7826;49.784;9.934;2022-08-02T16:15:45;30.40;38.20
15450;DHT22;7826;49.784;9.934;2022-08-02T16:18:12;30.20;38.20
15450;DHT22;7826;49.784;9.934;2022-08-02T16:20:38;30.20;38.70
15450;DHT22;7826;49.784;9.934;2022-08-02T16:23:05;30.30;38.80
15450;DHT22;7826;49.784;9.934;2022-08-02T16:25:31;30.30;38.80
15450;DHT22;7826;49.784;9.934;2022-08-02T16:27:58;30.30;38.80
15450;DHT22;7826;49.784;9.934;2022-08-02T16:30:24;30.30;39.00
15450;DHT22;7826;49.784;9.934;2022-08-02T16:32:51;30.20;39.10
15450;DHT22;7826;49.784;9.934;2022-08-02T16:35:18;30.20;39.30